createdAt,value
2023-05-17T00:01:48.352Z,96920.25
2023-05-17T00:04:14.886Z,96911.81
2023-05-17T00:06:41.449Z,96920.81
2023-05-17T00:09:08.096Z,96916.47
2023-05-17T00:11:34.935Z,96920.25
2023-05-17T00:14:01.439Z,96917.63
2023-05-17T00:16:27.990Z,96915.28
2023-05-17T00:18:54.683Z,96917.38
2023-05-17T00:21:21.295Z,96927.16
2023-05-17T00:23:47.828Z,96916.25
2023-05-17T00:26:14.339Z,96928.66
2023-05-17T00:28:41.776Z,96918.53
2023-05-17T00:31:08.329Z,96921.75
2023-05-17T00:33:34.860Z,96929.78
2023-05-17T00:36:01.407Z,96918.47
2023-05-17T00:38:27.938Z,96918.19
2023-05-17T00:40:54.668Z,96923.94
2023-05-17T00:43:21.248Z,96933.59
2023-05-17T00:45:49.366Z,96916.34
2023-05-17T00:48:16.359Z,96922.00
2023-05-17T00:50:43.202Z,96925.22
2023-05-17T00:53:09.937Z,96913.59
2023-05-17T00:55:36.466Z,96919.72
2023-05-17T00:58:02.987Z,96915.28
2023-05-17T01:00:29.574Z,96910.97
2023-05-17T01:02:56.237Z,96911.47
2023-05-17T01:05:23.003Z,96911.91
2023-05-17T01:07:49.484Z,96909.28
2023-05-17T01:10:16.169Z,96910.38
2023-05-17T01:13:01.577Z,96906.91
2023-05-17T01:15:36.733Z,96905.28
2023-05-17T01:18:06.296Z,96909.66
2023-05-17T01:20:41.442Z,96911.81
2023-05-17T01:23:26.892Z,96910.38
2023-05-17T01:26:12.126Z,96907.63
2023-05-17T01:28:39.102Z,96914.06
2023-05-17T01:31:06.488Z,96914.41
2023-05-17T01:33:34.116Z,96915.16
2023-05-17T01:36:00.736Z,96911.69
2023-05-17T01:38:27.284Z,96918.50
2023-05-17T01:41:12.652Z,96918.88
2023-05-17T01:43:48.060Z,96922.22
2023-05-17T01:46:17.653Z,96921.88
2023-05-17T01:48:48.318Z,96919.06
2023-05-17T01:51:18.910Z,96919.88
2023-05-17T01:53:49.444Z,96927.25
2023-05-17T01:56:19.926Z,96923.81
2023-05-17T01:58:47.488Z,96919.38
2023-05-17T02:01:18.619Z,96921.41
2023-05-17T02:03:48.851Z,96930.38
2023-05-17T02:06:15.759Z,96928.06
2023-05-17T02:08:42.275Z,96922.97
2023-05-17T02:11:08.807Z,96919.69
2023-05-17T02:13:35.344Z,96922.09
2023-05-17T02:16:02.594Z,96931.44
2023-05-17T02:18:29.537Z,96928.16
2023-05-17T02:20:56.190Z,96926.91
2023-05-17T02:23:24.931Z,96921.19
2023-05-17T02:25:52.533Z,96923.59
2023-05-17T02:28:19.102Z,96929.09
2023-05-17T02:30:46.122Z,96929.97
2023-05-17T02:33:13.357Z,96931.88
2023-05-17T02:35:39.959Z,96943.31
2023-05-17T02:38:06.546Z,96944.28
2023-05-17T02:40:33.085Z,96943.44
2023-05-17T02:43:02.574Z,96947.72
2023-05-17T02:45:29.407Z,96960.03
2023-05-17T02:47:56.165Z,96951.50
2023-05-17T02:50:22.983Z,96945.44
2023-05-17T02:52:49.631Z,96946.94
2023-05-17T02:55:16.298Z,96961.44
2023-05-17T02:57:43.115Z,96954.44
2023-05-17T03:00:10.205Z,96958.13
2023-05-17T03:02:37.070Z,96961.66
2023-05-17T03:05:05.205Z,96950.34
2023-05-17T03:07:32.109Z,96944.88
2023-05-17T03:09:58.681Z,96946.19
2023-05-17T03:12:29.836Z,96949.66
2023-05-17T03:14:57.160Z,96940.81
2023-05-17T03:17:24.101Z,96938.31
2023-05-17T03:19:50.781Z,96942.94
2023-05-17T03:22:17.451Z,96944.63
2023-05-17T03:24:44.038Z,96949.16
2023-05-17T03:27:10.687Z,96952.41
2023-05-17T03:29:37.334Z,96954.06
2023-05-17T03:32:04.738Z,96954.75
2023-05-17T03:34:31.542Z,96968.03
2023-05-17T03:36:58.391Z,96962.63
2023-05-17T03:39:25.099Z,96969.38
2023-05-17T03:41:51.925Z,96975.44
2023-05-17T03:44:19.122Z,96976.63
2023-05-17T03:46:46.269Z,96985.75
2023-05-17T03:49:13.957Z,96996.03
2023-05-17T03:51:40.936Z,96999.19
2023-05-17T03:54:07.507Z,97000.38
2023-05-17T03:56:34.015Z,97003.47
2023-05-17T03:59:00.615Z,97014.94
2023-05-17T04:01:27.470Z,97014.03
2023-05-17T04:03:54.043Z,97025.69
2023-05-17T04:06:21.925Z,97040.44
2023-05-17T04:08:48.898Z,97039.84
2023-05-17T04:11:15.488Z,97039.69
2023-05-17T04:13:43.258Z,97040.44
2023-05-17T04:16:10.449Z,97053.69
2023-05-17T04:18:40.238Z,97052.66
2023-05-17T04:21:07.067Z,97048.84
2023-05-17T04:23:34.999Z,97059.09
2023-05-17T04:26:03.221Z,97066.28
2023-05-17T04:28:31.888Z,97071.41
2023-05-17T04:30:58.531Z,97081.31
2023-05-17T04:33:26.875Z,97097.50
2023-05-17T04:35:56.810Z,97084.75
2023-05-17T04:38:25.143Z,97100.53
2023-05-17T04:40:51.888Z,97091.97
2023-05-17T04:43:18.802Z,97100.34
2023-05-17T04:45:46.739Z,97096.16
2023-05-17T04:48:13.540Z,97094.56
2023-05-17T04:50:40.742Z,97104.28
2023-05-17T04:53:07.304Z,97110.81
2023-05-17T04:55:36.386Z,97112.09
2023-05-17T04:58:03.300Z,97115.00
2023-05-17T05:00:31.108Z,97118.09
2023-05-17T05:03:04.982Z,97111.44
2023-05-17T05:05:32.305Z,97113.78
2023-05-17T05:07:58.973Z,97103.22
2023-05-17T05:10:28.750Z,97100.16
2023-05-17T05:12:56.101Z,97097.44
2023-05-17T05:15:23.358Z,97088.31
2023-05-17T05:17:55.319Z,97086.53
2023-05-17T05:20:22.112Z,97089.88
2023-05-17T05:22:48.659Z,97087.72
2023-05-17T05:25:17.467Z,97087.75
2023-05-17T05:27:44.584Z,97097.91
2023-05-17T05:30:13.344Z,97088.22
2023-05-17T05:32:39.961Z,97096.41
2023-05-17T05:35:06.716Z,97106.97
2023-05-17T05:37:33.671Z,97113.56
2023-05-17T05:40:00.242Z,97106.34
2023-05-17T05:42:27.726Z,97107.09
2023-05-17T05:44:54.340Z,97106.09
2023-05-17T05:47:22.389Z,97116.28
2023-05-17T05:49:48.936Z,97128.94
2023-05-17T05:52:15.508Z,97123.63
2023-05-17T05:54:43.209Z,97125.25
2023-05-17T05:57:09.756Z,97131.38
2023-05-17T05:59:36.415Z,97131.78
2023-05-17T06:02:04.033Z,97139.66
2023-05-17T06:04:41.180Z,97132.44
2023-05-17T06:07:11.469Z,97144.31
2023-05-17T06:09:37.944Z,97142.50
2023-05-17T06:12:04.526Z,97154.75
2023-05-17T06:14:31.073Z,97159.81
2023-05-17T06:16:57.640Z,97160.03
2023-05-17T06:19:24.294Z,97159.69
2023-05-17T06:21:51.202Z,97162.16
2023-05-17T06:24:17.831Z,97166.94
2023-05-17T06:26:44.383Z,97172.72
2023-05-17T06:29:11.077Z,97190.50
2023-05-17T06:31:37.660Z,97197.09
2023-05-17T06:34:04.364Z,97195.06
2023-05-17T06:36:32.381Z,97207.88
2023-05-17T06:38:59.541Z,97208.53
2023-05-17T06:41:26.069Z,97217.03
2023-05-17T06:43:52.587Z,97211.28
2023-05-17T06:46:19.067Z,97219.16
2023-05-17T06:48:47.432Z,97228.69
2023-05-17T06:51:16.272Z,97221.28
2023-05-17T06:53:42.771Z,97211.34
2023-05-17T06:56:09.252Z,97216.06
2023-05-17T06:58:35.924Z,97223.22
2023-05-17T07:01:02.451Z,97230.69
2023-05-17T07:03:29.266Z,97233.97
2023-05-17T07:05:55.894Z,97235.13
2023-05-17T07:08:22.349Z,97245.06
2023-05-17T07:10:51.126Z,97251.78
2023-05-17T07:13:17.662Z,97234.38
2023-05-17T07:15:44.272Z,97247.44
2023-05-17T07:18:10.951Z,97253.53
2023-05-17T07:20:37.620Z,97251.22
2023-05-17T07:23:04.124Z,97265.31
2023-05-17T07:25:31.638Z,97253.66
2023-05-17T07:27:58.188Z,97259.91
2023-05-17T07:30:24.849Z,97252.78
2023-05-17T07:32:51.857Z,97258.91
2023-05-17T07:35:26.260Z,97261.44
2023-05-17T07:37:52.865Z,97262.94
2023-05-17T07:40:19.394Z,97264.78
2023-05-17T07:42:45.848Z,97278.47
2023-05-17T07:45:12.358Z,97274.59
2023-05-17T07:47:39.222Z,97262.41
2023-05-17T07:50:06.093Z,97263.25
2023-05-17T07:52:32.643Z,97259.38
2023-05-17T07:54:59.158Z,97278.81
2023-05-17T07:57:27.263Z,97272.91
2023-05-17T07:59:53.772Z,97274.47
2023-05-17T08:02:20.544Z,97283.06
2023-05-17T08:04:47.185Z,97276.13
2023-05-17T08:07:13.712Z,97267.47
2023-05-17T08:09:40.373Z,97277.06
2023-05-17T08:12:06.903Z,97290.06
2023-05-17T08:14:33.464Z,97291.94
2023-05-17T08:17:00.070Z,97298.50
2023-05-17T08:19:26.712Z,97299.03
2023-05-17T08:21:53.402Z,97310.53
2023-05-17T08:24:22.481Z,97305.91
2023-05-17T08:26:49.034Z,97313.84
2023-05-17T08:29:15.606Z,97304.50
2023-05-17T08:31:42.291Z,97320.00
2023-05-17T08:34:08.940Z,97332.53
2023-05-17T08:36:35.689Z,97325.03
2023-05-17T08:39:02.380Z,97322.72
2023-05-17T08:41:29.412Z,97329.00
2023-05-17T08:43:56.954Z,97333.03
2023-05-17T08:46:23.938Z,97321.53
2023-05-17T08:48:51.855Z,97325.31
2023-05-17T08:51:19.462Z,97330.25
2023-05-17T08:53:47.525Z,97330.72
2023-05-17T08:56:15.822Z,97330.91
2023-05-17T08:58:55.607Z,97336.19
2023-05-17T09:01:26.048Z,97336.78
2023-05-17T09:03:53.826Z,97338.03
2023-05-17T09:06:21.623Z,97335.88
2023-05-17T09:08:51.157Z,97331.44
2023-05-17T09:11:28.036Z,97333.06
2023-05-17T09:13:57.697Z,97330.59
2023-05-17T09:16:24.205Z,97333.19
2023-05-17T09:18:57.734Z,97326.59
2023-05-17T09:21:25.066Z,97330.72
2023-05-17T09:24:04.777Z,97329.59
2023-05-17T09:26:43.043Z,97339.53
2023-05-17T09:29:13.835Z,97336.41
2023-05-17T09:31:41.304Z,97344.56
2023-05-17T09:34:08.762Z,97341.66
2023-05-17T09:36:36.235Z,97348.56
2023-05-17T09:39:06.697Z,97351.31
2023-05-17T09:41:56.204Z,97348.44
2023-05-17T09:44:25.439Z,97348.84
2023-05-17T09:46:52.844Z,97354.16
2023-05-17T09:49:19.381Z,97361.50
2023-05-17T09:51:47.362Z,97364.75
2023-05-17T09:54:14.313Z,97357.50
2023-05-17T09:56:41.342Z,97361.13
2023-05-17T09:59:11.599Z,97359.03
2023-05-17T10:01:40.552Z,97365.63
2023-05-17T10:04:09.128Z,97363.63
2023-05-17T10:06:45.989Z,97380.41
2023-05-17T10:09:14.761Z,97374.06
2023-05-17T10:11:46.765Z,97378.06
2023-05-17T10:14:18.497Z,97381.56
2023-05-17T10:16:45.422Z,97383.88
2023-05-17T10:19:12.306Z,97384.91
2023-05-17T10:21:39.569Z,97391.75
2023-05-17T10:24:06.507Z,97383.03
2023-05-17T10:26:33.505Z,97384.28
2023-05-17T10:29:01.416Z,97380.53
2023-05-17T10:31:33.209Z,97390.47
2023-05-17T10:34:04.086Z,97392.00
2023-05-17T10:36:31.206Z,97400.44
2023-05-17T10:38:58.493Z,97406.91
2023-05-17T10:41:27.519Z,97411.31
2023-05-17T10:43:54.677Z,97401.78
2023-05-17T10:46:23.420Z,97400.38
2023-05-17T10:48:53.991Z,97406.38
2023-05-17T10:51:24.883Z,97402.00
2023-05-17T10:54:11.625Z,97411.00
2023-05-17T10:56:46.890Z,97416.50
2023-05-17T10:59:21.605Z,97410.53
2023-05-17T11:01:50.681Z,97418.41
2023-05-17T11:04:21.585Z,97424.66
2023-05-17T11:06:48.185Z,97419.63
2023-05-17T11:09:18.765Z,97417.53
2023-05-17T11:12:04.756Z,97418.72
2023-05-17T11:14:46.313Z,97422.81
2023-05-17T11:17:17.896Z,97430.25
2023-05-17T11:20:10.897Z,97430.88
2023-05-17T11:22:41.086Z,97438.09
2023-05-17T11:25:12.223Z,97437.69
2023-05-17T11:27:39.851Z,97437.75
2023-05-17T11:30:29.873Z,97441.41
2023-05-17T11:32:59.924Z,97444.03
2023-05-17T11:35:27.577Z,97453.22
2023-05-17T11:38:11.661Z,97452.06
2023-05-17T11:40:38.249Z,97460.22
2023-05-17T11:43:18.464Z,97460.78
2023-05-17T11:45:46.170Z,97465.19
2023-05-17T11:48:13.183Z,97478.25
2023-05-17T11:50:40.566Z,97475.56
2023-05-17T11:53:07.898Z,97481.75
2023-05-17T11:55:37.834Z,97485.28
2023-05-17T11:58:05.652Z,97481.56
2023-05-17T12:00:32.561Z,97493.69
2023-05-17T12:02:59.624Z,97501.91
2023-05-17T12:05:26.257Z,97510.06
2023-05-17T12:07:55.703Z,97505.72
2023-05-17T12:10:22.226Z,97513.91
2023-05-17T12:12:48.737Z,97514.22
2023-05-17T12:15:18.426Z,97512.53
2023-05-17T12:17:45.495Z,97522.47
2023-05-17T12:20:12.541Z,97521.81
2023-05-17T12:22:51.861Z,97532.13
2023-05-17T12:25:25.320Z,97521.06
2023-05-17T12:27:52.170Z,97534.63
2023-05-17T12:30:18.913Z,97544.84
2023-05-17T12:32:46.037Z,97545.34
2023-05-17T12:35:12.943Z,97549.91
2023-05-17T12:37:39.691Z,97549.66
2023-05-17T12:40:07.018Z,97560.53
2023-05-17T12:42:33.588Z,97564.22
2023-05-17T12:45:00.700Z,97565.56
2023-05-17T12:47:33.690Z,97569.13
2023-05-17T12:50:00.589Z,97574.53
2023-05-17T12:52:32.949Z,97583.41
2023-05-17T12:54:59.478Z,97582.28
2023-05-17T12:57:25.974Z,97590.59
2023-05-17T12:59:52.973Z,97593.38
2023-05-17T13:02:20.147Z,97586.75
2023-05-17T13:04:47.414Z,97594.38
2023-05-17T13:07:21.420Z,97594.91
2023-05-17T13:09:48.451Z,97605.97
2023-05-17T13:12:22.253Z,97595.41
2023-05-17T13:14:51.719Z,97600.72
2023-05-17T13:17:19.238Z,97599.47
2023-05-17T13:19:46.095Z,97604.88
2023-05-17T13:22:12.660Z,97603.44
2023-05-17T13:24:39.897Z,97603.31
2023-05-17T13:27:07.311Z,97612.75
2023-05-17T13:29:39.705Z,97609.31
2023-05-17T13:32:07.970Z,97612.78
2023-05-17T13:34:35.559Z,97610.25
2023-05-17T13:37:02.185Z,97611.19
2023-05-17T13:39:28.775Z,97617.19
2023-05-17T13:41:56.729Z,97615.56
2023-05-17T13:44:23.411Z,97611.72
2023-05-17T13:46:49.920Z,97625.84
2023-05-17T13:49:17.319Z,97609.72
2023-05-17T13:51:44.368Z,97624.56
2023-05-17T13:54:11.578Z,97623.47
2023-05-17T13:56:38.169Z,97628.31
2023-05-17T13:59:04.708Z,97628.38
2023-05-17T14:01:31.240Z,97633.47
2023-05-17T14:03:57.874Z,97637.75
2023-05-17T14:06:24.675Z,97642.41
2023-05-17T14:08:53.214Z,97639.66
2023-05-17T14:11:19.863Z,97629.59
2023-05-17T14:13:46.451Z,97630.31
2023-05-17T14:16:13.763Z,97637.31
2023-05-17T14:18:40.403Z,97627.00
2023-05-17T14:21:08.333Z,97635.03
2023-05-17T14:23:35.025Z,97628.31
2023-05-17T14:26:02.856Z,97627.00
2023-05-17T14:28:29.423Z,97627.00
2023-05-17T14:30:56.231Z,97621.28
2023-05-17T14:36:25.403Z,97629.94
2023-05-17T14:38:51.933Z,97613.13
2023-05-17T14:41:18.620Z,97624.44
2023-05-17T14:43:45.432Z,97626.91
2023-05-17T14:46:11.960Z,97623.88
2023-05-17T14:48:38.470Z,97625.44
2023-05-17T14:51:05.211Z,97617.31
2023-05-17T14:53:31.992Z,97612.88
2023-05-17T14:55:58.984Z,97613.81
2023-05-17T14:58:25.976Z,97612.63
2023-05-17T15:01:05.362Z,97615.03
2023-05-17T15:03:34.088Z,97615.19
2023-05-17T15:06:01.697Z,97614.56
2023-05-17T15:08:29.908Z,97616.25
2023-05-17T15:10:57.694Z,97624.69
2023-05-17T15:13:24.911Z,97620.19
2023-05-17T15:15:52.357Z,97624.91
2023-05-17T15:18:19.040Z,97616.63
2023-05-17T15:20:46.090Z,97619.22
2023-05-17T15:23:12.605Z,97623.00
2023-05-17T15:25:39.088Z,97626.69
2023-05-17T15:28:05.594Z,97616.78
2023-05-17T15:30:32.120Z,97618.75
2023-05-17T15:32:59.062Z,97621.22
2023-05-17T15:35:25.801Z,97618.25
2023-05-17T15:37:53.586Z,97621.94
2023-05-17T15:40:24.521Z,97615.00
2023-05-17T15:42:52.362Z,97608.91
2023-05-17T15:45:21.219Z,97607.94
2023-05-17T15:47:48.832Z,97618.06
2023-05-17T15:50:15.489Z,97622.44
2023-05-17T15:52:42.223Z,97627.50
2023-05-17T15:55:09.682Z,97633.31
2023-05-17T15:57:36.523Z,97632.31
2023-05-17T16:00:03.634Z,97635.03
2023-05-17T16:02:31.635Z,97634.38
2023-05-17T16:04:58.994Z,97633.69
2023-05-17T16:07:27.326Z,97644.84
2023-05-17T16:09:53.904Z,97648.06
2023-05-17T16:12:20.474Z,97650.13
2023-05-17T16:14:47.008Z,97654.63
2023-05-17T16:17:13.547Z,97656.34
2023-05-17T16:19:40.125Z,97654.66
2023-05-17T16:22:06.972Z,97668.16
2023-05-17T16:24:33.804Z,97677.66
2023-05-17T16:27:00.353Z,97667.69
2023-05-17T16:29:27.036Z,97677.63
2023-05-17T16:31:53.658Z,97686.72
2023-05-17T16:34:20.291Z,97690.78
2023-05-17T16:36:48.234Z,97682.00
2023-05-17T16:39:14.765Z,97687.41
2023-05-17T16:41:41.359Z,97686.03
2023-05-17T16:44:08.003Z,97685.03
2023-05-17T16:46:34.551Z,97694.66
2023-05-17T16:49:01.258Z,97700.38
2023-05-17T16:51:27.746Z,97709.59
2023-05-17T16:53:54.255Z,97709.28
2023-05-17T16:56:22.312Z,97706.81
2023-05-17T16:58:48.862Z,97705.84
2023-05-17T17:01:15.983Z,97717.50
2023-05-17T17:03:42.570Z,97719.38
2023-05-17T17:06:09.188Z,97718.97
2023-05-17T17:08:35.690Z,97720.97
2023-05-17T17:11:02.793Z,97718.66
2023-05-17T17:13:29.307Z,97716.00
2023-05-17T17:15:55.898Z,97718.78
2023-05-17T17:18:22.581Z,97719.81
2023-05-17T17:20:49.109Z,97731.47
2023-05-17T17:23:15.726Z,97737.88
2023-05-17T17:25:42.282Z,97728.97
2023-05-17T17:28:09.411Z,97741.56
2023-05-17T17:30:36.130Z,97746.66
2023-05-17T17:33:02.886Z,97736.66
2023-05-17T17:35:29.481Z,97737.25
2023-05-17T17:37:56.360Z,97748.31
2023-05-17T17:40:23.427Z,97756.63
2023-05-17T17:42:49.946Z,97754.94
2023-05-17T17:45:16.469Z,97753.13
2023-05-17T17:47:44.906Z,97751.66
2023-05-17T17:50:11.433Z,97744.28
2023-05-17T17:52:37.945Z,97745.94
2023-05-17T17:55:05.012Z,97744.44
2023-05-17T17:57:33.411Z,97740.03
2023-05-17T17:59:59.884Z,97742.75
2023-05-17T18:02:26.517Z,97747.94
2023-05-17T18:04:53.123Z,97741.22
2023-05-17T18:07:19.738Z,97749.31
2023-05-17T18:09:46.279Z,97751.44
2023-05-17T18:12:12.792Z,97750.59
2023-05-17T18:14:39.393Z,97739.97
2023-05-17T18:17:07.995Z,97741.44
2023-05-17T18:19:34.541Z,97742.81
2023-05-17T18:22:01.075Z,97748.13
2023-05-17T18:24:27.835Z,97752.69
2023-05-17T18:26:54.402Z,97749.78
2023-05-17T18:29:21.108Z,97754.72
2023-05-17T18:31:47.895Z,97738.63
2023-05-17T18:34:14.562Z,97760.53
2023-05-17T18:36:42.288Z,97766.28
2023-05-17T18:39:08.841Z,97766.31
2023-05-17T18:41:35.566Z,97757.50
2023-05-17T18:44:02.845Z,97774.41
2023-05-17T18:46:29.497Z,97774.00
2023-05-17T18:48:56.065Z,97783.56
2023-05-17T18:51:22.632Z,97783.84
2023-05-17T18:53:49.202Z,97788.16
2023-05-17T18:56:22.491Z,97786.47
2023-05-17T18:58:55.102Z,97796.44
2023-05-17T19:01:21.745Z,97801.84
2023-05-17T19:03:51.376Z,97814.25
2023-05-17T19:06:19.595Z,97812.94
2023-05-17T19:08:46.297Z,97811.88
2023-05-17T19:11:12.815Z,97817.03
2023-05-17T19:13:39.323Z,97818.03
2023-05-17T19:16:06.003Z,97820.94
2023-05-17T19:18:32.654Z,97831.19
2023-05-17T19:20:59.192Z,97826.00
2023-05-17T19:23:25.883Z,97836.22
2023-05-17T19:25:53.486Z,97837.00
2023-05-17T19:28:20.001Z,97834.53
2023-05-17T19:30:46.705Z,97841.97
2023-05-17T19:33:13.329Z,97832.75
2023-05-17T19:35:40.911Z,97842.19
2023-05-17T19:38:07.561Z,97851.28
2023-05-17T19:40:34.308Z,97841.44
2023-05-17T19:43:03.924Z,97845.69
2023-05-17T19:45:30.769Z,97850.53
2023-05-17T19:47:57.324Z,97846.41
2023-05-17T19:50:24.465Z,97845.47
2023-05-17T19:52:51.248Z,97845.41
2023-05-17T19:55:22.042Z,97855.00
2023-05-17T19:57:48.882Z,97863.66
2023-05-17T20:00:15.868Z,97865.44
2023-05-17T20:02:42.674Z,97867.50
2023-05-17T20:05:09.338Z,97864.44
2023-05-17T20:07:36.229Z,97862.41
2023-05-17T20:10:02.772Z,97865.09
2023-05-17T20:12:29.268Z,97868.56
2023-05-17T20:14:55.970Z,97875.53
2023-05-17T20:17:22.444Z,97876.59
2023-05-17T20:19:49.049Z,97877.34
2023-05-17T20:22:15.801Z,97875.97
2023-05-17T20:24:44.037Z,97876.06
2023-05-17T20:27:11.040Z,97864.22
2023-05-17T20:29:38.319Z,97868.22
2023-05-17T20:32:05.879Z,97874.34
2023-05-17T20:34:33.421Z,97878.44
2023-05-17T20:37:01.062Z,97884.00
2023-05-17T20:39:31.076Z,97875.06
2023-05-17T20:41:58.335Z,97881.66
2023-05-17T20:44:25.885Z,97884.38
2023-05-17T20:46:52.683Z,97875.97
2023-05-17T20:49:19.197Z,97881.66
2023-05-17T20:51:46.139Z,97883.72
2023-05-17T20:54:12.885Z,97897.41
2023-05-17T20:56:40.071Z,97889.75
2023-05-17T20:59:07.217Z,97897.88
2023-05-17T21:01:34.216Z,97891.09
2023-05-17T21:04:01.382Z,97888.31
2023-05-17T21:06:30.226Z,97891.84
2023-05-17T21:09:02.222Z,97884.44
2023-05-17T21:11:29.587Z,97893.88
2023-05-17T21:13:57.889Z,97887.00
2023-05-17T21:16:24.520Z,97892.91
2023-05-17T21:18:51.166Z,97897.94
2023-05-17T21:21:18.147Z,97895.25
2023-05-17T21:23:44.647Z,97899.94
2023-05-17T21:26:11.148Z,97892.06
2023-05-17T21:28:37.636Z,97902.22
2023-05-17T21:31:04.377Z,97898.84
2023-05-17T21:33:32.372Z,97897.88
2023-05-17T21:35:59.125Z,97895.25
2023-05-17T21:38:25.578Z,97901.28
2023-05-17T21:40:52.131Z,97894.94
2023-05-17T21:43:18.772Z,97899.91
2023-05-17T21:45:45.443Z,97900.91
2023-05-17T21:48:12.106Z,97894.94
2023-05-17T21:50:38.645Z,97895.25
2023-05-17T21:53:05.141Z,97902.44
2023-05-17T21:55:41.022Z,97897.78
2023-05-17T21:58:19.398Z,97891.84
2023-05-17T22:00:45.958Z,97896.47
2023-05-17T22:03:12.669Z,97893.09
2023-05-17T22:05:39.351Z,97892.88
2023-05-17T22:08:05.941Z,97892.28
2023-05-17T22:10:32.625Z,97893.03
2023-05-17T22:13:02.108Z,97890.75
2023-05-17T22:15:28.695Z,97896.06
2023-05-17T22:17:55.267Z,97891.44
2023-05-17T22:20:23.789Z,97888.13
2023-05-17T22:22:50.676Z,97893.88
2023-05-17T22:25:17.790Z,97899.91
2023-05-17T22:27:45.360Z,97898.53
2023-05-17T22:30:12.143Z,97897.47
2023-05-17T22:32:40.272Z,97900.28
2023-05-17T22:35:07.171Z,97902.53
2023-05-17T22:37:33.954Z,97897.44
2023-05-17T22:40:00.681Z,97896.94
2023-05-17T22:42:27.254Z,97901.94
2023-05-17T22:44:53.818Z,97908.94
2023-05-17T22:47:22.899Z,97902.31
2023-05-17T22:49:52.589Z,97899.94
2023-05-17T22:52:19.856Z,97899.88
2023-05-17T22:54:46.478Z,97895.00
2023-05-17T22:57:12.977Z,97895.13
2023-05-17T22:59:39.620Z,97896.13
2023-05-17T23:02:06.352Z,97893.28
2023-05-17T23:04:33.182Z,97888.56
2023-05-17T23:07:03.393Z,97888.75
2023-05-17T23:09:30.038Z,97892.03
2023-05-17T23:11:57.027Z,97882.91
2023-05-17T23:14:24.102Z,97887.78
2023-05-17T23:16:50.706Z,97887.84
2023-05-17T23:19:18.129Z,97880.72
2023-05-17T23:21:46.319Z,97880.94
2023-05-17T23:24:14.033Z,97880.16
2023-05-17T23:26:41.446Z,97872.78
2023-05-17T23:29:10.604Z,97873.34
2023-05-17T23:31:37.582Z,97872.94
2023-05-17T23:34:04.393Z,97867.38
2023-05-17T23:36:30.920Z,97870.22
2023-05-17T23:38:57.437Z,97859.34
2023-05-17T23:41:25.396Z,97857.00
2023-05-17T23:43:52.226Z,97849.22
2023-05-17T23:46:19.803Z,97862.50
2023-05-17T23:48:52.551Z,97862.63
2023-05-17T23:51:19.873Z,97860.41
2023-05-17T23:53:48.689Z,97862.81
2023-05-17T23:56:18.121Z,97873.19
2023-05-17T23:58:47.858Z,97868.56
